This is the latest recevied weather packets stored in our database for station/object SQ7IQO. If no packets are shown the sender has not sent any weather packets the latest 10 day(s).
| Time | Temp. | Humidity | Pressure | Rain* | Wind** | Luminosity | Snow |
|---|---|---|---|---|---|---|---|
| 1788087463 | 26.11° C | 45% | 1016.1 hPa | 0 mm | 1.34 m/s, ° | - | - |
| 1788087403 | 26.11° C | 46% | 1016.2 hPa | 0 mm | 0.89 m/s, ° | - | - |
| 1788087343 | 26.11° C | 45% | 1016.2 hPa | 0 mm | 0.89 m/s, ° | - | - |
| 1788087283 | 26.11° C | 45% | 1016.2 hPa | 0 mm | 1.34 m/s, ° | - | - |
| 1788087223 | 26.11° C | 45% | 1016.2 hPa | 0 mm | 0.45 m/s, ° | - | - |
| 1788087163 | 26.11° C | 44% | 1016.2 hPa | 0 mm | 0.89 m/s, ° | - | - |
| 1788087103 | 26.11° C | 44% | 1016.2 hPa | 0 mm | 0.89 m/s, ° | - | - |
| 1788087043 | 26.11° C | 47% | 1016.2 hPa | 0 mm | 0.89 m/s, ° | - | - |
| 1788086983 | 26.11° C | 47% | 1016.3 hPa | 0 mm | 0.89 m/s, ° | - | - |
| 1788086923 | 26.11° C | 46% | 1016.2 hPa | 0 mm | 0 m/s | - | - |
| 1788086863 | 26.11° C | 46% | 1016.3 hPa | 0 mm | 0.89 m/s, ° | - | - |
| 1788086803 | 26.11° C | 47% | 1016.3 hPa | 0 mm | 0.45 m/s, ° | - | - |
| 1788086743 | 26.11° C | 46% | 1016.3 hPa | 0 mm | 0.45 m/s, ° | - | - |
| 1788086683 | 26.11° C | 45% | 1016.3 hPa | 0 mm | 0.45 m/s, ° | - | - |
| 1788086623 | 26.11° C | 44% | 1016.3 hPa | 0 mm | 0.89 m/s, ° | - | - |
| 1788086563 | 26.11° C | 45% | 1016.3 hPa | 0 mm | 0.89 m/s, ° | - | - |
| 1788086503 | 26.11° C | 47% | 1016.3 hPa | 0 mm | 0 m/s | - | - |
| 1788086443 | 26.11° C | 49% | 1016.3 hPa | 0 mm | 0 m/s | - | - |
| 1788086383 | 26.11° C | 47% | 1016.3 hPa | 0 mm | 0 m/s | - | - |
| 1788086323 | 26.11° C | 46% | - | 0 mm | 0.45 m/s, ° | - | - |
| 1788086263 | 26.11° C | 48% | 1002.8 hPa | 0 mm | 0.89 m/s, ° | - | - |
| 1788086203 | 26.11° C | 48% | 1016.4 hPa | 0 mm | 0 m/s | - | - |
| 1788086143 | 26.11° C | 48% | 1016.3 hPa | 0 mm | 0.45 m/s, ° | - | - |
| 1788086083 | 26.11° C | 47% | 1016.3 hPa | 0 mm | 0.45 m/s, ° | - | - |
| 1788086023 | 26.11° C | 47% | 1016.3 hPa | 0 mm | 0 m/s | - | - |
* Rain latest hour (hover to see other rain measurements)
** Current wind speed in m/s (hover to see current wind gust speed)